Time;durP1;ratioP1;P1;durP2;ratioP2;P2;SDS_P1;SDS_P2;PMS_P1;PMS_P2;Temp;Humidity;BMP_temperature;BMP_pressure;BME280_temperature;BME280_humidity;BME280_pressure;Samples;Min_cycle;Max_cycle;Signal;HPM_P1;HPM_P2
2022/10/02 00:00:18;;;;;;;26.83;5.38;;;;;;;13.07;100.00;101256.19;5058177;28;20154;-68
2022/10/02 00:02:55;;;;;;;25.85;5.68;;;;;;;13.04;100.00;101267.97;5057492;28;20060;-69
2022/10/02 00:05:33;;;;;;;33.15;6.85;;;;;;;13.02;100.00;101279.75;5057986;28;20067;-68
2022/10/02 00:08:14;;;;;;;25.92;5.05;;;;;;;13.04;100.00;101281.34;5054213;28;20037;-69
2022/10/02 00:10:51;;;;;;;28.45;4.57;;;;;;;13.02;100.00;101280.59;5058491;28;20120;-68
2022/10/02 00:13:36;;;;;;;26.40;4.60;;;;;;;12.99;100.00;101278.13;5060067;28;20448;-68
2022/10/02 00:16:07;;;;;;;32.03;4.43;;;;;;;12.98;100.00;101291.63;5053072;28;20048;-69
2022/10/02 00:18:36;;;;;;;22.08;4.40;;;;;;;12.96;100.00;101291.72;5058175;28;20485;-69
2022/10/02 00:21:31;;;;;;;24.92;4.32;;;;;;;12.90;100.00;101292.09;5021876;28;20041;-69
2022/10/02 00:23:59;;;;;;;17.60;4.28;;;;;;;12.91;100.00;101296.53;5057372;28;20075;-69
2022/10/02 00:26:55;;;;;;;17.45;3.58;;;;;;;12.87;100.00;101295.00;5042482;28;20098;-68
2022/10/02 00:29:46;;;;;;;23.52;7.07;;;;;;;12.84;100.00;101279.13;5057288;28;20040;-68
2022/10/02 00:32:34;;;;;;;26.42;4.03;;;;;;;12.80;100.00;101272.25;5054837;28;20035;-67
2022/10/02 00:35:11;;;;;;;20.90;5.18;;;;;;;12.77;100.00;101275.16;5056595;28;20101;-68
2022/10/02 00:37:58;;;;;;;18.88;3.60;;;;;;;12.73;100.00;101284.34;5055484;28;20036;-68
2022/10/02 00:40:38;;;;;;;21.20;3.50;;;;;;;12.67;100.00;101277.56;5049023;28;20037;-69
2022/10/02 00:43:10;;;;;;;19.33;3.38;;;;;;;12.56;100.00;101277.41;5061401;28;20043;-67
2022/10/02 00:45:41;;;;;;;19.10;3.97;;;;;;;12.49;100.00;101278.75;5062094;28;20671;-67
2022/10/02 00:48:25;;;;;;;20.02;4.53;;;;;;;12.39;100.00;101273.13;5060656;28;20969;-69
2022/10/02 00:50:59;;;;;;;8.77;3.28;;;;;;;12.32;100.00;101274.50;5062710;28;20040;-67
2022/10/02 00:53:55;;;;;;;12.73;3.33;;;;;;;12.27;100.00;101276.59;5037712;28;20036;-68
2022/10/02 00:56:37;;;;;;;13.65;2.50;;;;;;;12.22;100.00;101284.91;5061548;28;20081;-69
2022/10/02 00:59:23;;;;;;;15.95;3.00;;;;;;;12.12;100.00;101291.78;5052072;28;20060;-69
2022/10/02 01:01:56;;;;;;;16.17;3.03;;;;;;;12.09;100.00;101290.16;5053951;28;20114;-68
2022/10/02 01:04:33;;;;;;;12.57;2.03;;;;;;;12.05;100.00;101280.63;5053836;28;20058;-68
2022/10/02 01:07:00;;;;;;;12.40;2.55;;;;;;;11.98;100.00;101286.44;5056349;28;20119;-69
2022/10/02 01:09:26;;;;;;;9.15;2.33;;;;;;;11.87;100.00;101290.63;5060589;28;20287;-69
2022/10/02 01:11:52;;;;;;;12.48;2.45;;;;;;;11.88;100.00;101296.84;5060479;28;20028;-68
2022/10/02 01:14:18;;;;;;;15.40;3.58;;;;;;;11.83;100.00;101297.13;5061210;28;20487;-68
2022/10/02 01:16:44;;;;;;;9.73;2.70;;;;;;;11.86;100.00;101302.28;5060141;28;20040;-69
2022/10/02 01:19:27;;;;;;;19.25;3.50;;;;;;;11.85;100.00;101305.06;5034957;28;20764;-69
2022/10/02 01:22:03;;;;;;;9.75;3.75;;;;;;;11.88;100.00;101297.69;5035439;28;20052;-68
2022/10/02 01:24:35;;;;;;;18.77;4.88;;;;;;;11.87;100.00;101295.13;5059598;28;20058;-68
2022/10/02 01:27:01;;;;;;;11.65;4.15;;;;;;;11.85;100.00;101292.56;5057610;28;20045;-68
2022/10/02 01:29:27;;;;;;;10.80;3.63;;;;;;;11.84;100.00;101289.97;5049051;28;20051;-68
2022/10/02 01:31:53;;;;;;;9.02;4.00;;;;;;;11.77;100.00;101293.94;5060382;28;20036;-69
2022/10/02 01:34:19;;;;;;;9.23;4.30;;;;;;;11.77;100.00;101294.81;5060280;28;20044;-68
2022/10/02 01:36:45;;;;;;;14.80;4.97;;;;;;;11.72;100.00;101293.38;5058908;28;20384;-67
2022/10/02 01:39:10;;;;;;;22.55;5.40;;;;;;;11.67;100.00;101288.31;5059016;28;20040;-67
2022/10/02 01:41:42;;;;;;;16.95;5.22;;;;;;;11.60;100.00;101285.16;5059671;28;20409;-69
2022/10/02 01:44:08;;;;;;;24.33;7.57;;;;;;;11.56;100.00;101286.28;5055780;28;20052;-67
2022/10/02 01:46:42;;;;;;;19.17;9.07;;;;;;;11.59;100.00;101302.09;5054164;28;20052;-68
2022/10/02 01:49:12;;;;;;;30.33;10.65;;;;;;;11.64;100.00;101302.69;5053112;28;20051;-68
2022/10/02 01:51:55;;;;;;;21.40;10.00;;;;;;;11.68;100.00;101306.91;5054796;28;20250;-67
2022/10/02 01:54:34;;;;;;;31.98;11.48;;;;;;;11.74;100.00;101307.47;5053540;28;20123;-68
2022/10/02 01:57:09;;;;;;;45.45;14.82;;;;;;;11.78;100.00;101314.34;5047106;28;20040;-68
2022/10/02 01:59:43;;;;;;;42.20;14.82;;;;;;;11.93;100.00;101313.44;5037241;28;20118;-69
2022/10/02 02:02:28;;;;;;;42.17;16.10;;;;;;;12.01;100.00;101337.06;5056972;28;20028;-69
2022/10/02 02:04:58;;;;;;;42.55;15.90;;;;;;;12.05;100.00;101341.22;5052472;28;20051;-69
2022/10/02 02:07:34;;;;;;;27.05;12.05;;;;;;;12.03;100.00;101349.34;5033776;28;20389;-69
2022/10/02 02:10:15;;;;;;;24.98;9.55;;;;;;;11.92;100.00;101370.53;5048888;28;20048;-69
2022/10/02 02:12:47;;;;;;;38.45;17.15;;;;;;;11.95;100.00;101348.09;5054835;28;20036;-69
2022/10/02 02:15:24;;;;;;;52.47;23.70;;;;;;;12.10;100.00;101339.16;5053841;28;20044;-69
2022/10/02 02:17:58;;;;;;;64.82;27.55;;;;;;;12.10;100.00;101340.03;5055043;28;20086;-69
2022/10/02 02:20:37;;;;;;;62.78;25.77;;;;;;;12.07;100.00;101344.69;5024647;28;20056;-68
2022/10/02 02:23:18;;;;;;;60.05;29.75;;;;;;;12.09;100.00;101332.06;5060078;28;20086;-68
2022/10/02 02:25:49;;;;;;;68.65;32.47;;;;;;;12.11;100.00;101339.06;5058885;28;20036;-68
2022/10/02 02:28:19;;;;;;;63.58;31.73;;;;;;;12.18;100.00;101331.50;5056706;28;20040;-66
2022/10/02 02:30:49;;;;;;;63.00;31.85;;;;;;;12.18;100.00;101331.50;5031667;28;20045;-68
2022/10/02 02:33:21;;;;;;;69.35;29.92;;;;;;;12.24;100.00;101316.91;5052605;28;20367;-69
2022/10/02 02:35:52;;;;;;;80.90;30.58;;;;;;;12.24;100.00;101319.56;5042034;28;20033;-68
2022/10/02 02:38:26;;;;;;;74.55;27.75;;;;;;;12.23;100.00;101317.84;5049763;28;20045;-69
2022/10/02 02:40:55;;;;;;;65.93;25.52;;;;;;;12.24;100.00;101322.25;5053277;28;20512;-68
2022/10/02 02:43:26;;;;;;;67.07;26.73;;;;;;;12.22;100.00;101316.16;5054442;28;20115;-68
2022/10/02 02:46:06;;;;;;;66.57;27.08;;;;;;;12.16;100.00;101314.72;5053438;28;20515;-69
2022/10/02 02:48:38;;;;;;;68.72;26.92;;;;;;;12.01;100.00;101316.53;5059432;28;20036;-67
2022/10/02 02:51:12;;;;;;;66.13;26.60;;;;;;;11.92;100.00;101315.28;5054050;28;20047;-68
2022/10/02 02:53:45;;;;;;;59.67;26.98;;;;;;;11.87;100.00;101321.84;5059525;28;20051;-69
2022/10/02 02:56:15;;;;;;;76.63;28.40;;;;;;;11.85;100.00;101310.41;5053007;28;20679;-68
2022/10/02 02:59:06;;;;;;;59.53;25.83;;;;;;;11.85;100.00;101316.63;5059055;28;20840;-69
2022/10/02 03:01:32;;;;;;;65.75;25.35;;;;;;;11.87;100.00;101316.50;5056987;28;20131;-67
2022/10/02 03:03:57;;;;;;;77.63;26.77;;;;;;;11.88;100.00;101319.06;5059359;28;20075;-69
2022/10/02 03:06:37;;;;;;;59.35;24.10;;;;;;;11.88;100.00;101313.72;5052939;28;20086;-68
2022/10/02 03:09:11;;;;;;;63.75;23.83;;;;;;;11.90;100.00;101327.03;5058573;28;20048;-69
2022/10/02 03:12:06;;;;;;;54.08;20.60;;;;;;;11.87;100.00;101325.38;5059434;28;20036;-69
2022/10/02 03:14:52;;;;;;;58.83;19.05;;;;;;;11.91;100.00;101336.75;5058345;28;20044;-68
2022/10/02 03:17:35;;;;;;;47.78;17.00;;;;;;;11.92;100.00;101335.78;5058503;28;20029;-69
2022/10/02 03:20:20;;;;;;;53.50;16.88;;;;;;;11.91;100.00;101326.91;5038813;28;20135;-67
2022/10/02 03:22:54;;;;;;;42.50;14.65;;;;;;;11.80;100.00;101317.81;5029141;28;20047;-69
2022/10/02 03:25:30;;;;;;;47.00;16.13;;;;;;;11.70;100.00;101309.50;5054639;28;20086;-68
2022/10/02 03:28:54;;;;;;;53.35;14.23;;;;;;;11.66;100.00;101321.31;5036941;28;20060;-69
2022/10/02 03:31:22;;;;;;;54.13;12.20;;;;;;;11.68;100.00;101322.94;4939037;28;20047;-69
2022/10/02 03:33:49;;;;;;;44.90;10.88;;;;;;;11.68;100.00;101322.94;4952288;28;20039;-69
2022/10/02 03:36:16;;;;;;;46.75;11.15;;;;;;;11.66;100.00;101311.50;4961609;28;20053;-69
2022/10/02 03:38:43;;;;;;;42.85;10.05;;;;;;;11.63;100.00;101321.50;4939928;28;20054;-69
2022/10/02 03:41:09;;;;;;;44.08;9.48;;;;;;;11.74;100.00;101323.50;4947834;28;20762;-70
2022/10/02 03:43:34;;;;;;;43.55;9.50;;;;;;;11.64;100.00;101321.38;4953818;28;20046;-69
2022/10/02 03:46:00;;;;;;;48.28;10.48;;;;;;;11.71;100.00;101316.56;4958092;28;20043;-69
2022/10/02 03:48:25;;;;;;;50.78;11.55;;;;;;;11.73;100.00;101329.81;4951355;28;20401;-69
2022/10/02 03:50:51;;;;;;;39.13;10.10;;;;;;;11.78;100.00;101315.22;4957293;28;20078;-68
2022/10/02 03:53:23;;;;;;;37.65;8.48;;;;;;;11.75;100.00;101323.44;4961274;28;20572;-69
2022/10/02 03:55:56;;;;;;;34.13;8.43;;;;;;;11.72;100.00;101314.75;4956542;28;20090;-69
2022/10/02 03:58:24;;;;;;;46.08;9.15;;;;;;;11.70;100.00;101317.50;4960197;28;20169;-68
2022/10/02 04:01:06;;;;;;;55.60;9.50;;;;;;;11.79;100.00;101324.09;4957486;28;20484;-68
2022/10/02 04:03:45;;;;;;;;;;;;;;;11.76;100.00;101327.81;5042151;28;20083;-68
2022/10/02 04:06:14;;;;;;;36.95;8.02;;;;;;;11.79;100.00;101318.75;5037498;28;19928;-69
2022/10/02 04:08:44;;;;;;;49.35;11.20;;;;;;;11.85;100.00;101321.09;5029330;28;20597;-69
2022/10/02 04:11:22;;;;;;;52.05;8.98;;;;;;;11.77;100.00;101318.00;5031975;28;20509;-69
2022/10/02 04:13:58;;;;;;;49.53;9.35;;;;;;;11.81;100.00;101317.72;5031774;28;20044;-69
2022/10/02 04:16:32;;;;;;;56.85;9.77;;;;;;;11.79;100.00;101318.75;5039960;28;20095;-68
2022/10/02 04:19:00;;;;;;;48.30;10.73;;;;;;;11.81;100.00;101323.06;5043342;28;20041;-67
2022/10/02 04:22:03;;;;;;;44.60;7.63;;;;;;;11.81;100.00;101328.41;5041420;28;20035;-69
2022/10/02 04:24:32;;;;;;;55.03;9.43;;;;;;;11.87;100.00;101327.19;5042413;28;20153;-69
2022/10/02 04:27:13;;;;;;;45.15;9.73;;;;;;;11.85;100.00;101342.47;5032261;28;20045;-68
2022/10/02 04:29:50;;;;;;;50.65;10.15;;;;;;;11.80;100.00;101348.06;5041860;28;20404;-69
2022/10/02 04:32:23;;;;;;;50.45;8.90;;;;;;;11.79;100.00;101353.47;5041066;28;20041;-69
2022/10/02 04:34:48;;;;;;;51.35;11.52;;;;;;;11.78;100.00;101351.78;5039585;28;20080;-69
2022/10/02 04:37:27;;;;;;;62.28;10.52;;;;;;;11.84;100.00;101352.28;5042682;28;20040;-69
2022/10/02 04:40:12;;;;;;;42.20;8.88;;;;;;;11.81;100.00;101348.91;5043112;28;20071;-68
2022/10/02 04:43:08;;;;;;;50.05;9.55;;;;;;;11.68;100.00;101349.66;5041464;28;20049;-67
2022/10/02 04:45:59;;;;;;;45.25;10.20;;;;;;;11.74;100.00;101355.56;5029079;28;20806;-69
2022/10/02 04:48:58;;;;;;;52.17;10.63;;;;;;;11.75;100.00;101366.19;5040522;28;20131;-70
2022/10/02 04:51:44;;;;;;;51.67;11.52;;;;;;;11.74;100.00;101366.25;5036675;28;20500;-68
2022/10/02 04:54:18;;;;;;;48.70;10.07;;;;;;;11.62;100.00;101363.38;5038928;28;20033;-70
2022/10/02 04:57:16;;;;;;;47.88;10.00;;;;;;;11.57;100.00;101360.13;5035629;28;20044;-69
2022/10/02 05:00:04;;;;;;;45.42;10.05;;;;;;;11.61;100.00;101361.66;5031880;28;20742;-70
2022/10/02 05:02:56;;;;;;;51.47;9.30;;;;;;;11.66;100.00;101362.25;5039191;28;20644;-69
2022/10/02 05:05:33;;;;;;;63.80;10.03;;;;;;;11.63;100.00;101369.56;5040063;28;20494;-69
2022/10/02 05:08:19;;;;;;;54.72;9.88;;;;;;;11.56;100.00;101366.41;5036283;28;20075;-69
2022/10/02 05:11:06;;;;;;;47.90;9.90;;;;;;;11.58;100.00;101369.84;5038363;28;20033;-69
2022/10/02 05:13:37;;;;;;;58.83;9.30;;;;;;;11.55;100.00;101364.69;5040999;28;20133;-69
2022/10/02 05:16:33;;;;;;;74.30;12.13;;;;;;;11.62;100.00;101374.06;5041782;28;20029;-67
2022/10/02 05:19:18;;;;;;;63.78;11.35;;;;;;;11.63;100.00;101372.25;5038173;28;20033;-70
2022/10/02 05:22:06;;;;;;;58.08;9.43;;;;;;;11.65;100.00;101365.00;5040415;28;20033;-70
2022/10/02 05:24:49;;;;;;;46.00;8.95;;;;;;;11.60;100.00;101372.44;5038310;28;20131;-67
2022/10/02 05:27:47;;;;;;;57.47;9.63;;;;;;;11.63;100.00;101375.78;5039803;28;20642;-68
2022/10/02 05:30:17;;;;;;;45.33;9.48;;;;;;;11.58;100.00;101380.53;5036560;28;20804;-68
2022/10/02 05:32:43;;;;;;;52.92;10.18;;;;;;;11.63;100.00;101375.78;5039870;28;20049;-70
2022/10/02 05:35:20;;;;;;;50.38;8.43;;;;;;;11.61;100.00;101361.66;5040493;28;20036;-69
2022/10/02 05:37:53;;;;;;;38.70;8.88;;;;;;;11.62;100.00;101371.38;5038539;28;20041;-69
2022/10/02 05:40:44;;;;;;;55.28;9.88;;;;;;;11.65;100.00;101386.38;5035306;28;20033;-69
2022/10/02 05:43:18;;;;;;;51.85;10.82;;;;;;;11.61;100.00;101400.88;5037421;28;20522;-68
2022/10/02 05:45:50;;;;;;;54.92;9.05;;;;;;;11.60;100.00;101412.50;5038770;28;20080;-69
2022/10/02 05:48:39;;;;;;;51.55;8.93;;;;;;;11.61;100.00;101412.41;5040562;28;20064;-68
2022/10/02 05:51:22;;;;;;;41.63;8.40;;;;;;;11.56;100.00;101417.16;5037873;28;20565;-69
2022/10/02 05:54:02;;;;;;;56.67;8.98;;;;;;;11.64;100.00;101422.91;5032437;28;20049;-68
2022/10/02 05:56:40;;;;;;;46.22;8.82;;;;;;;11.61;100.00;101417.75;5038332;28;20044;-69
2022/10/02 05:59:17;;;;;;;53.72;9.52;;;;;;;11.71;100.00;101420.75;5037277;28;20045;-70
2022/10/02 06:01:47;;;;;;;51.10;8.20;;;;;;;11.73;100.00;101426.84;5036976;28;20385;-70
2022/10/02 06:04:21;;;;;;;41.67;8.48;;;;;;;11.72;100.00;101422.47;5051677;28;20051;-69
2022/10/02 06:06:57;;;;;;;41.28;7.68;;;;;;;11.79;100.00;101426.47;5055436;28;20106;-69
2022/10/02 06:09:27;;;;;;;38.92;8.57;;;;;;;11.83;100.00;101419.19;5052062;28;20123;-69
2022/10/02 06:12:05;;;;;;;49.88;8.95;;;;;;;11.92;100.00;101422.19;5041990;28;20054;-69
2022/10/02 06:14:34;;;;;;;41.50;8.27;;;;;;;12.00;100.00;101432.41;5057296;28;20040;-68
2022/10/02 06:17:07;;;;;;;44.50;7.93;;;;;;;12.07;100.00;101428.41;5058933;28;20040;-70
2022/10/02 06:19:56;;;;;;;46.90;9.10;;;;;;;12.15;100.00;101431.50;5057908;28;20037;-69
2022/10/02 06:22:28;;;;;;;41.22;7.85;;;;;;;12.27;100.00;101435.22;5056203;28;20094;-69
2022/10/02 06:25:17;;;;;;;53.70;8.63;;;;;;;12.42;100.00;101422.72;5059252;28;20119;-70
2022/10/02 06:27:50;;;;;;;40.25;7.97;;;;;;;12.54;100.00;101435.34;5059200;28;20477;-69
2022/10/02 06:30:17;;;;;;;40.90;7.05;;;;;;;12.53;100.00;101430.94;5055581;28;20123;-70
2022/10/02 06:32:54;;;;;;;32.30;8.48;;;;;;;12.64;100.00;101441.84;5041820;28;20090;-68
2022/10/02 06:35:57;;;;;;;34.83;7.50;;;;;;;12.61;100.00;101431.34;5059035;28;20056;-69
2022/10/02 06:38:37;;;;;;;;;;;;;;;12.70;100.00;101429.88;5056110;28;20040;-68
2022/10/02 06:41:28;;;;;;;36.30;7.38;;;;;;;12.71;100.00;101431.63;5056960;28;19943;-68
2022/10/02 06:44:16;;;;;;;35.80;7.13;;;;;;;12.72;100.00;101441.38;5020897;28;20489;-68
2022/10/02 06:46:52;;;;;;;43.50;7.07;;;;;;;12.84;100.00;101447.75;5054088;28;20067;-68
2022/10/02 06:49:36;;;;;;;39.65;7.55;;;;;;;12.87;100.00;101455.59;5042040;28;20032;-67
2022/10/02 06:52:26;;;;;;;39.42;7.50;;;;;;;12.99;100.00;101457.50;5054687;28;20048;-69
2022/10/02 06:55:06;;;;;;;30.50;6.20;;;;;;;12.99;100.00;101459.31;5053794;28;20029;-69
2022/10/02 06:57:50;;;;;;;44.53;8.82;;;;;;;13.04;100.00;101452.69;5039621;28;20032;-68
2022/10/02 07:00:20;;;;;;;36.00;7.90;;;;;;;13.07;100.00;101443.63;5055387;28;20029;-68
2022/10/02 07:03:05;;;;;;;33.30;6.82;;;;;;;13.20;100.00;101450.78;5052653;28;20043;-69
2022/10/02 07:05:46;;;;;;;41.90;7.50;;;;;;;13.27;100.00;101463.81;5052731;28;20837;-69
2022/10/02 07:08:36;;;;;;;37.10;7.43;;;;;;;13.32;100.00;101457.19;5052093;28;20536;-69
2022/10/02 07:11:24;;;;;;;38.78;7.95;;;;;;;13.54;100.00;101456.63;5052176;28;20048;-68
2022/10/02 07:13:56;;;;;;;30.77;5.75;;;;;;;13.85;100.00;101467.97;5043995;28;20543;-69
2022/10/02 07:16:49;;;;;;;35.25;7.95;;;;;;;14.05;100.00;101463.97;5053946;28;20161;-67
2022/10/02 07:19:54;;;;;;;31.10;6.47;;;;;;;14.09;100.00;101479.75;5054966;28;20131;-70
2022/10/02 07:22:48;;;;;;;21.95;6.40;;;;;;;14.10;100.00;101484.13;5027771;28;20048;-67
2022/10/02 07:25:38;;;;;;;23.08;5.78;;;;;;;14.19;100.00;101490.72;5046869;28;20552;-69
2022/10/02 07:28:22;;;;;;;29.42;6.13;;;;;;;14.36;100.00;101489.56;5053586;28;20533;-68
2022/10/02 07:30:57;;;;;;;24.35;6.25;;;;;;;14.42;100.00;101487.31;5054672;28;20044;-67
2022/10/02 07:33:41;;;;;;;23.88;6.35;;;;;;;14.80;100.00;101489.16;5050230;28;20040;-69
2022/10/02 07:36:20;;;;;;;33.67;5.82;;;;;;;15.18;100.00;101488.25;5056011;28;20064;-69
2022/10/02 07:38:45;;;;;;;22.08;6.55;;;;;;;15.47;100.00;101492.38;5054395;28;20779;-68
2022/10/02 07:41:48;;;;;;;20.38;4.82;;;;;;;15.48;100.00;101491.38;5054642;28;20052;-70
2022/10/02 07:44:36;;;;;;;32.90;6.57;;;;;;;15.33;100.00;101491.66;5055830;28;20039;-69
2022/10/02 07:47:23;;;;;;;27.63;5.75;;;;;;;15.13;100.00;101502.03;5055564;28;20064;-70
2022/10/02 07:50:19;;;;;;;22.55;4.50;;;;;;;15.21;100.00;101502.34;5055004;28;20487;-67
2022/10/02 07:53:19;;;;;;;20.05;5.15;;;;;;;15.18;100.00;101507.91;5051849;28;21029;-69
2022/10/02 07:55:51;;;;;;;27.73;5.43;;;;;;;15.01;100.00;101509.13;5053310;28;20449;-67
2022/10/02 07:58:27;;;;;;;17.10;5.10;;;;;;;15.00;100.00;101519.97;5052337;28;20037;-68
2022/10/02 08:01:17;;;;;;;19.63;4.35;;;;;;;14.83;100.00;101520.31;5054660;28;20548;-69
2022/10/02 08:03:48;;;;;;;18.60;4.68;;;;;;;14.95;100.00;101517.59;5049945;28;20056;-69
2022/10/02 08:06:15;;;;;;;17.27;4.97;;;;;;;15.01;100.00;101527.09;5053618;28;20098;-69
2022/10/02 08:08:54;;;;;;;19.50;5.10;;;;;;;15.12;100.00;101529.84;5052313;28;20041;-69
2022/10/02 08:11:31;;;;;;;17.70;5.85;;;;;;;15.20;100.00;101534.66;5053127;28;20044;-72
2022/10/02 08:14:01;;;;;;;21.10;3.90;;;;;;;15.29;100.00;101534.88;5052105;28;20036;-73
2022/10/02 08:16:35;;;;;;;17.02;4.82;;;;;;;15.11;100.00;101533.53;5039819;28;20033;-69
2022/10/02 08:19:05;;;;;;;17.98;4.60;;;;;;;15.47;100.00;101532.69;5052277;28;20721;-69
2022/10/02 08:21:39;;;;;;;15.43;4.25;;;;;;;15.41;100.00;101543.00;5051424;28;20048;-68
2022/10/02 08:24:50;;;;;;;26.50;5.13;;;;;;;15.53;100.00;101536.75;5055066;28;20560;-68
2022/10/02 08:27:21;;;;;;;18.80;4.28;;;;;;;15.55;100.00;101535.66;4992753;28;20084;-68
2022/10/02 08:29:52;;;;;;;16.00;4.30;;;;;;;15.89;100.00;101533.19;5054967;28;20044;-67
2022/10/02 08:32:17;;;;;;;25.75;4.28;;;;;;;16.33;100.00;101549.66;5036768;28;20032;-67
2022/10/02 08:34:43;;;;;;;16.58;4.28;;;;;;;16.13;100.00;101545.78;5060300;28;20044;-72
2022/10/02 08:37:30;;;;;;;24.38;4.95;;;;;;;15.97;100.00;101548.78;5041904;28;20043;-69
2022/10/02 08:40:33;;;;;;;25.50;4.68;;;;;;;16.04;100.00;101548.19;5058862;28;20038;-69
2022/10/02 08:43:49;;;;;;;17.30;4.50;;;;;;;16.20;100.00;101553.28;5059349;28;20036;-66
2022/10/02 08:46:30;;;;;;;14.13;4.55;;;;;;;16.33;100.00;101558.59;5052447;28;20059;-67
2022/10/02 08:49:19;;;;;;;22.83;5.50;;;;;;;16.33;100.00;101558.59;5058778;28;20060;-68
2022/10/02 08:52:18;;;;;;;27.33;4.88;;;;;;;16.23;100.00;101558.44;5058423;28;20047;-69
2022/10/02 08:55:21;;;;;;;26.98;3.88;;;;;;;16.33;100.00;101565.81;5058775;28;20039;-68
2022/10/02 08:58:12;;;;;;;;;;;;;;;16.10;100.00;101564.84;5057630;28;20048;-68
2022/10/02 09:01:23;;;;;;;18.52;3.67;;;;;;;16.22;100.00;101569.31;5057620;28;19920;-67
2022/10/02 09:04:39;;;;;;;20.80;3.85;;;;;;;16.33;100.00;101573.88;5020027;28;20047;-69
2022/10/02 09:07:38;;;;;;;17.02;4.03;;;;;;;16.67;100.00;101577.56;5037384;28;20040;-69
2022/10/02 09:10:25;;;;;;;26.23;4.97;;;;;;;16.84;100.00;101577.13;5026412;28;20102;-67
2022/10/02 09:13:15;;;;;;;23.75;3.55;;;;;;;16.91;100.00;101574.81;5059522;28;20055;-68
2022/10/02 09:15:55;;;;;;;18.27;3.60;;;;;;;17.24;100.00;101576.69;5055232;28;20386;-67
2022/10/02 09:18:37;;;;;;;20.70;5.13;;;;;;;17.10;100.00;101583.16;5054948;28;20033;-69
2022/10/02 09:21:14;;;;;;;23.38;4.00;;;;;;;17.11;100.00;101587.56;5056337;28;20040;-68
2022/10/02 09:23:55;;;;;;;18.73;3.08;;;;;;;17.07;100.00;101588.81;5056767;28;20691;-68
2022/10/02 09:26:25;;;;;;;16.70;3.97;;;;;;;17.17;100.00;101595.19;5058644;28;20404;-69
2022/10/02 09:29:13;;;;;;;12.40;2.95;;;;;;;17.19;100.00;101585.13;5038558;28;20044;-69
2022/10/02 09:31:58;;;;;;;17.80;3.70;;;;;;;16.91;100.00;101593.66;5054614;28;20028;-67
2022/10/02 09:34:41;;;;;;;17.30;3.47;;;;;;;17.13;100.00;101591.00;5058465;28;20432;-67
2022/10/02 09:37:20;;;;;;;21.92;3.67;;;;;;;17.20;100.00;101597.63;5058642;28;20214;-68
2022/10/02 09:40:13;;;;;;;16.48;4.13;;;;;;;17.30;100.00;101592.34;5038705;28;20063;-69
2022/10/02 09:43:12;;;;;;;16.67;3.35;;;;;;;17.06;100.00;101595.16;5054313;28;20032;-68
2022/10/02 09:45:50;;;;;;;16.00;3.00;;;;;;;16.82;100.00;101603.34;5052156;28;20033;-69
2022/10/02 09:48:29;;;;;;;16.58;2.95;;;;;;;16.93;100.00;101595.28;5057661;28;20028;-69
2022/10/02 09:51:13;;;;;;;21.05;3.67;;;;;;;17.03;100.00;101598.09;5035521;28;20033;-66
2022/10/02 09:54:00;;;;;;;11.63;2.60;;;;;;;16.96;99.03;101605.78;5041791;28;20041;-67
2022/10/02 09:57:05;;;;;;;14.65;3.40;;;;;;;17.27;99.29;101604.25;5036224;28;20123;-66
2022/10/02 09:59:57;;;;;;;15.30;3.25;;;;;;;17.50;96.48;101601.53;5053110;28;20561;-67
2022/10/02 10:02:44;;;;;;;15.48;3.60;;;;;;;17.78;97.05;101601.06;5059663;28;20147;-66
2022/10/02 10:05:41;;;;;;;14.48;2.78;;;;;;;17.55;97.04;101612.81;5054498;28;20279;-67
2022/10/02 10:08:34;;;;;;;14.82;3.17;;;;;;;17.85;94.15;101612.19;5054491;28;20280;-67
2022/10/02 10:11:20;;;;;;;13.90;3.17;;;;;;;17.99;94.41;101605.69;5050820;28;20397;-67
2022/10/02 10:14:10;;;;;;;21.45;2.85;;;;;;;18.65;91.57;101609.09;5058540;28;20208;-68
2022/10/02 10:16:47;;;;;;;20.58;3.55;;;;;;;18.74;90.43;101604.81;5058914;28;20101;-68
2022/10/02 10:19:31;;;;;;;13.50;3.13;;;;;;;18.33;91.64;101610.00;5030418;28;20041;-66
2022/10/02 10:22:34;;;;;;;12.98;2.90;;;;;;;18.23;90.07;101613.59;5056899;28;20029;-65
2022/10/02 10:25:09;;;;;;;12.13;3.00;;;;;;;18.30;90.10;101617.47;5055339;28;20037;-68
2022/10/02 10:28:02;;;;;;;19.25;3.22;;;;;;;18.16;89.67;101624.03;5054194;28;20090;-67
2022/10/02 10:31:08;;;;;;;12.45;2.30;;;;;;;18.22;87.91;101628.06;5033850;28;20829;-67
2022/10/02 10:34:04;;;;;;;19.58;2.65;;;;;;;18.33;89.00;101619.94;5055360;28;20157;-67
2022/10/02 10:40:04;;;;;;;13.52;2.53;;;;;;;18.54;81.70;101631.63;5052578;28;21030;-68
2022/10/02 10:43:02;;;;;;;18.25;3.28;;;;;;;18.63;80.70;101624.59;5048123;28;20044;-68
2022/10/02 10:45:36;;;;;;;11.52;1.95;;;;;;;18.91;80.00;101624.97;5054198;28;20044;-66
2022/10/02 10:48:14;;;;;;;9.35;2.35;;;;;;;18.77;78.24;101631.53;5051582;28;20439;-66
2022/10/02 10:50:43;;;;;;;14.15;2.90;;;;;;;18.86;78.41;101628.91;5028379;28;20055;-67
2022/10/02 10:53:30;;;;;;;14.38;3.63;;;;;;;18.44;77.13;101636.09;5037655;28;20036;-66
2022/10/02 10:56:18;;;;;;;13.98;3.03;;;;;;;18.34;80.35;101637.84;5043988;28;20036;-67
2022/10/02 10:58:43;;;;;;;7.90;2.65;;;;;;;18.35;79.48;101643.13;5056973;28;20032;-67
2022/10/02 11:01:38;;;;;;;16.25;3.33;;;;;;;18.58;78.32;101646.59;5055340;28;20390;-66
2022/10/02 11:04:38;;;;;;;9.60;2.20;;;;;;;18.94;79.32;101657.16;5054190;28;20053;-68
2022/10/02 11:07:49;;;;;;;10.77;2.22;;;;;;;18.74;75.87;101659.69;5057019;28;20118;-67
2022/10/02 11:10:31;;;;;;;10.82;2.67;;;;;;;18.62;76.49;101657.97;5025618;28;20789;-68
2022/10/02 11:13:22;;;;;;;11.77;2.75;;;;;;;18.49;75.75;101654.63;5049106;28;20089;-68
2022/10/02 11:16:20;;;;;;;8.50;1.90;;;;;;;18.51;75.73;101658.03;5052081;28;20046;-67
2022/10/02 11:19:13;;;;;;;12.20;2.17;;;;;;;18.76;76.79;101660.41;5012387;28;20068;-68
2022/10/02 11:22:08;;;;;;;12.07;2.10;;;;;;;18.86;78.50;101668.59;5055425;28;20715;-67
2022/10/02 11:24:59;;;;;;;15.13;2.90;;;;;;;18.91;74.88;101665.50;5037866;28;20130;-69
2022/10/02 11:27:32;;;;;;;12.05;2.25;;;;;;;18.84;75.80;101668.75;5052792;28;20870;-68
2022/10/02 11:30:19;;;;;;;7.65;1.92;;;;;;;18.72;75.80;101675.16;5027673;28;20064;-69
2022/10/02 11:33:02;;;;;;;11.80;2.20;;;;;;;19.00;74.41;101678.25;5054870;28;20048;-66
2022/10/02 11:35:52;;;;;;;13.57;2.38;;;;;;;19.07;75.82;101666.75;5026446;28;20664;-66
2022/10/02 11:38:31;;;;;;;6.53;1.85;;;;;;;18.84;75.37;101674.16;5056496;28;20039;-72
2022/10/02 11:41:30;;;;;;;13.80;2.03;;;;;;;18.82;74.72;101673.41;5050168;28;20059;-67
2022/10/02 11:44:28;;;;;;;11.18;2.35;;;;;;;18.72;73.19;101677.88;5050386;28;20036;-68
2022/10/02 11:47:17;;;;;;;7.93;1.92;;;;;;;19.39;74.79;101682.91;5053370;28;20051;-69
2022/10/02 11:50:01;;;;;;;10.02;2.45;;;;;;;19.49;73.31;101679.41;5051637;28;20029;-67
2022/10/02 11:52:41;;;;;;;12.65;2.60;;;;;;;19.07;72.74;101684.81;5055745;28;20407;-67
2022/10/02 11:55:21;;;;;;;9.98;2.45;;;;;;;19.31;72.41;101682.69;5056484;28;20043;-68
2022/10/02 11:58:07;;;;;;;10.85;2.45;;;;;;;18.68;75.35;101687.25;5034978;28;20043;-69
2022/10/02 12:00:44;;;;;;;8.52;2.63;;;;;;;18.84;74.25;101687.66;5044455;28;20040;-66
2022/10/02 12:03:43;;;;;;;14.23;2.33;;;;;;;18.76;75.50;101687.44;5048518;28;20715;-68
2022/10/02 12:06:27;;;;;;;15.00;3.40;;;;;;;18.63;77.40;101694.84;5050233;28;20110;-67
2022/10/02 12:09:24;;;;;;;8.77;2.20;;;;;;;18.20;76.71;101701.09;5048553;28;20067;-67
2022/10/02 12:12:01;;;;;;;6.63;2.22;;;;;;;18.04;79.06;101700.63;5057322;28;20047;-68
2022/10/02 12:14:43;;;;;;;10.60;2.55;;;;;;;18.19;81.28;101691.28;5058069;28;20040;-69